Time;durP1;ratioP1;P1;durP2;ratioP2;P2;SDS_P1;SDS_P2;PMS_P1;PMS_P2;Temp;Humidity;BMP_temperature;BMP_pressure;BME280_temperature;BME280_humidity;BME280_pressure;Samples;Min_cycle;Max_cycle;Signal;HPM_P1;HPM_P2
2023/08/28 00:00:48;;;;;;;3.70;1.73;;;13.40;99.90;;;;;;5136405;27;20047;-74
2023/08/28 00:03:14;;;;;;;3.30;1.77;;;13.40;99.90;;;;;;5136738;27;20092;-73
2023/08/28 00:05:39;;;;;;;3.03;1.98;;;13.40;99.90;;;;;;5136258;27;20130;-74
2023/08/28 00:08:05;;;;;;;3.92;1.88;;;13.40;99.90;;;;;;5136289;27;20046;-73
2023/08/28 00:10:31;;;;;;;3.00;1.73;;;13.40;99.90;;;;;;5136463;27;20043;-74
2023/08/28 00:12:57;;;;;;;1.80;1.70;;;13.40;99.90;;;;;;5137050;27;20115;-74
2023/08/28 00:15:23;;;;;;;2.42;1.75;;;13.40;99.90;;;;;;5136326;27;20519;-76
2023/08/28 00:17:49;;;;;;;2.45;2.13;;;13.30;99.90;;;;;;5136654;27;20050;-73
2023/08/28 00:20:15;;;;;;;4.38;2.20;;;13.30;99.90;;;;;;5136109;27;20403;-74
2023/08/28 00:22:42;;;;;;;4.15;2.38;;;13.30;99.90;;;;;;5101212;27;20073;-75
2023/08/28 00:25:08;;;;;;;6.00;2.00;;;13.30;99.90;;;;;;5136645;27;20050;-73
2023/08/28 00:27:34;;;;;;;3.08;1.70;;;13.30;99.90;;;;;;5136661;27;20057;-73
2023/08/28 00:30:01;;;;;;;2.78;1.98;;;13.40;99.90;;;;;;5084534;27;20489;-72
2023/08/28 00:32:27;;;;;;;2.17;1.98;;;13.40;99.90;;;;;;5117991;27;20055;-74
2023/08/28 00:34:54;;;;;;;3.47;1.80;;;13.50;99.90;;;;;;5136226;27;20039;-74
2023/08/28 00:37:19;;;;;;;3.92;1.80;;;13.50;99.90;;;;;;5136083;27;20043;-73
2023/08/28 00:39:45;;;;;;;2.50;1.70;;;13.50;99.90;;;;;;5100805;27;20035;-73
2023/08/28 00:42:11;;;;;;;2.38;1.80;;;13.50;99.90;;;;;;5136893;27;20043;-73
2023/08/28 00:44:36;;;;;;;5.70;1.88;;;13.60;99.90;;;;;;5136011;27;20459;-73
2023/08/28 00:47:05;;;;;;;3.85;2.00;;;13.50;99.90;;;;;;5136581;27;20341;-73
2023/08/28 00:49:32;;;;;;;1.83;1.73;;;13.50;99.90;;;;;;5118028;27;20399;-74
2023/08/28 00:51:58;;;;;;;4.20;2.05;;;13.50;99.90;;;;;;5136209;27;20440;-73
2023/08/28 00:54:24;;;;;;;1.77;1.60;;;13.50;99.90;;;;;;5117392;27;20047;-75
2023/08/28 00:56:53;;;;;;;3.50;1.58;;;13.50;99.90;;;;;;5135784;27;20049;-73
2023/08/28 00:59:18;;;;;;;2.65;1.95;;;13.40;99.90;;;;;;5135660;27;20054;-78
2023/08/28 01:01:44;;;;;;;2.63;2.42;;;13.40;99.90;;;;;;5135854;27;20039;-74
2023/08/28 01:04:10;;;;;;;3.38;2.50;;;13.40;99.90;;;;;;5134403;27;20035;-73
2023/08/28 01:06:44;;;;;;;3.35;2.30;;;13.40;99.90;;;;;;5135498;27;20100;-73
2023/08/28 01:09:33;;;;;;;3.38;1.70;;;13.40;99.90;;;;;;5136072;27;20046;-73
2023/08/28 01:12:06;;;;;;;2.10;1.77;;;13.30;99.90;;;;;;5135448;27;20047;-73
2023/08/28 01:14:41;;;;;;;4.60;2.03;;;13.30;99.90;;;;;;5135587;27;20043;-72
2023/08/28 01:17:09;;;;;;;3.95;1.90;;;13.30;99.90;;;;;;5135744;27;20159;-73
2023/08/28 01:19:40;;;;;;;3.08;2.15;;;13.30;99.90;;;;;;5135270;27;20479;-73
2023/08/28 01:22:18;;;;;;;4.72;2.00;;;13.20;99.90;;;;;;5135124;27;20086;-73
2023/08/28 01:25:09;;;;;;;2.63;1.55;;;13.20;99.90;;;;;;5117219;27;20396;-74
2023/08/28 01:27:39;;;;;;;5.68;2.38;;;13.10;99.90;;;;;;5135326;27;20131;-74
2023/08/28 01:30:05;;;;;;;2.30;1.90;;;13.10;99.90;;;;;;5134969;27;20112;-75
2023/08/28 01:32:31;;;;;;;3.40;2.03;;;13.10;99.90;;;;;;5117075;27;20104;-73
2023/08/28 01:34:57;;;;;;;2.13;1.80;;;13.10;99.90;;;;;;5135325;27;20479;-74
2023/08/28 01:37:27;;;;;;;1.60;1.50;;;13.00;99.90;;;;;;5134876;27;20475;-74
2023/08/28 01:39:59;;;;;;;2.80;1.95;;;13.10;99.90;;;;;;5117372;27;20043;-75
2023/08/28 01:42:25;;;;;;;4.40;1.85;;;13.10;99.90;;;;;;5134688;27;20053;-73
2023/08/28 01:44:54;;;;;;;2.22;1.90;;;13.00;99.90;;;;;;5134623;27;20167;-75
2023/08/28 01:47:23;;;;;;;1.75;1.65;;;13.10;99.90;;;;;;5134666;27;20121;-74
2023/08/28 01:49:53;;;;;;;2.17;1.83;;;13.00;99.90;;;;;;5134540;27;20096;-74
2023/08/28 01:52:19;;;;;;;5.10;1.75;;;13.00;99.90;;;;;;5116257;27;20042;-73
2023/08/28 01:54:45;;;;;;;2.13;1.75;;;13.00;99.90;;;;;;5134697;27;20043;-74
2023/08/28 01:57:10;;;;;;;2.38;1.70;;;12.90;99.90;;;;;;5135945;27;20062;-75
2023/08/28 01:59:36;;;;;;;2.55;2.35;;;12.90;99.90;;;;;;5135671;27;20510;-73
2023/08/28 02:02:02;;;;;;;2.95;1.83;;;12.90;99.90;;;;;;5136435;27;20058;-75
2023/08/28 02:04:28;;;;;;;2.83;1.70;;;12.90;99.90;;;;;;5135546;27;20122;-74
2023/08/28 02:06:53;;;;;;;1.90;1.80;;;12.90;99.90;;;;;;5134587;27;20057;-74
2023/08/28 02:09:19;;;;;;;2.47;2.28;;;12.90;99.90;;;;;;5134310;27;20049;-74
2023/08/28 02:11:45;;;;;;;3.85;2.45;;;12.90;99.90;;;;;;5133890;27;20062;-74
2023/08/28 02:14:11;;;;;;;2.08;1.88;;;12.80;99.90;;;;;;5099661;27;20039;-76
2023/08/28 02:16:39;;;;;;;2.60;2.20;;;12.80;99.90;;;;;;5134223;27;20126;-78
2023/08/28 02:19:05;;;;;;;3.13;2.00;;;12.80;99.90;;;;;;5134200;27;20063;-73
2023/08/28 02:21:31;;;;;;;5.45;2.22;;;12.80;99.90;;;;;;5134707;27;20061;-73
2023/08/28 02:23:57;;;;;;;2.78;2.03;;;12.80;99.90;;;;;;5134476;27;20454;-75
2023/08/28 02:26:24;;;;;;;4.60;2.28;;;12.70;99.90;;;;;;5134284;27;20458;-75
2023/08/28 02:28:50;;;;;;;1.90;1.70;;;12.70;99.90;;;;;;5134362;27;20051;-75
2023/08/28 02:31:15;;;;;;;2.65;1.92;;;13.10;99.90;;;;;;5134483;27;20039;-78
2023/08/28 02:33:41;;;;;;;2.05;1.83;;;12.70;99.90;;;;;;5134067;27;20466;-76
2023/08/28 02:36:07;;;;;;;7.03;2.38;;;12.70;99.90;;;;;;5134273;27;20043;-77
2023/08/28 02:38:33;;;;;;;3.17;2.10;;;12.60;99.90;;;;;;5115908;27;20387;-75
2023/08/28 02:41:04;;;;;;;2.35;2.05;;;12.60;99.90;;;;;;5133771;27;20114;-78
2023/08/28 02:43:30;;;;;;;2.80;2.10;;;12.60;99.90;;;;;;5115605;27;20039;-74
2023/08/28 02:45:56;;;;;;;6.22;2.70;;;12.50;99.90;;;;;;5133807;27;20054;-75
2023/08/28 02:48:22;;;;;;;3.40;2.35;;;12.50;99.90;;;;;;5115467;27;20530;-74
2023/08/28 02:50:51;;;;;;;2.35;2.15;;;12.50;99.90;;;;;;5133803;27;20122;-76
2023/08/28 02:53:17;;;;;;;3.42;2.65;;;12.50;99.90;;;;;;5133586;27;20043;-74
2023/08/28 02:56:32;;;;;;;3.63;2.47;;;12.50;99.90;;;;;;5133552;27;20085;-75
2023/08/28 02:58:57;;;;;;;2.75;2.00;;;12.50;99.90;;;;;;5119154;28;20058;-75
2023/08/28 03:01:23;;;;;;;4.13;2.25;;;12.50;99.90;;;;;;5114985;28;20047;-78
2023/08/28 03:03:49;;;;;;;3.03;2.20;;;12.40;99.90;;;;;;5115176;28;20035;-73
2023/08/28 03:06:14;;;;;;;4.97;2.45;;;12.50;99.90;;;;;;5133441;28;20053;-75
2023/08/28 03:08:40;;;;;;;4.65;2.60;;;12.50;99.90;;;;;;5133671;28;20130;-73
2023/08/28 03:11:06;;;;;;;4.47;2.80;;;12.40;99.90;;;;;;5133351;28;20043;-74
2023/08/28 03:13:31;;;;;;;3.40;2.40;;;12.40;99.90;;;;;;5133455;28;20043;-73
2023/08/28 03:15:57;;;;;;;2.50;2.30;;;12.40;99.90;;;;;;5133580;28;20516;-75
2023/08/28 03:18:23;;;;;;;3.60;2.30;;;12.40;99.90;;;;;;5098538;28;20050;-75
2023/08/28 03:20:49;;;;;;;3.15;2.63;;;12.40;99.90;;;;;;5133253;28;20096;-73
2023/08/28 03:23:14;;;;;;;2.33;2.13;;;12.40;99.90;;;;;;5133842;28;20104;-76
2023/08/28 03:25:40;;;;;;;4.88;2.47;;;12.40;99.90;;;;;;5133188;27;20109;-75
2023/08/28 03:28:09;;;;;;;3.63;2.63;;;12.40;99.90;;;;;;5136859;27;20378;-73
2023/08/28 03:30:35;;;;;;;4.50;2.10;;;12.40;99.90;;;;;;5137681;27;20055;-73
2023/08/28 03:33:01;;;;;;;2.90;2.35;;;12.40;99.90;;;;;;5137424;27;20061;-75
2023/08/28 03:35:27;;;;;;;2.53;2.33;;;12.40;99.90;;;;;;5137143;27;20078;-76
2023/08/28 03:37:53;;;;;;;3.42;2.40;;;12.40;99.90;;;;;;5137158;27;20062;-75
2023/08/28 03:40:18;;;;;;;3.13;2.75;;;12.40;99.90;;;;;;5137091;27;20043;-74
2023/08/28 03:42:44;;;;;;;3.08;2.10;;;12.40;99.90;;;;;;5137122;27;20168;-76
2023/08/28 03:45:10;;;;;;;4.03;2.70;;;12.40;99.90;;;;;;5137277;27;20199;-79
2023/08/28 03:47:35;;;;;;;2.97;2.40;;;12.30;99.90;;;;;;5136990;27;20119;-74
2023/08/28 03:50:01;;;;;;;2.80;2.42;;;12.30;99.90;;;;;;5119002;27;20051;-73
2023/08/28 03:52:27;;;;;;;3.20;2.60;;;12.30;99.90;;;;;;5136431;27;20039;-74
2023/08/28 03:54:52;;;;;;;3.83;2.70;;;12.30;99.90;;;;;;5136768;27;20089;-76
2023/08/28 03:57:18;;;;;;;3.22;2.65;;;12.30;99.90;;;;;;5136697;27;20047;-75
2023/08/28 03:59:44;;;;;;;5.55;2.75;;;12.40;99.90;;;;;;5118419;27;20043;-74
2023/08/28 04:02:10;;;;;;;3.45;2.50;;;12.40;99.90;;;;;;5137015;27;20054;-74
2023/08/28 04:04:35;;;;;;;3.83;2.13;;;12.40;99.90;;;;;;5136773;27;20035;-75
2023/08/28 04:07:03;;;;;;;3.15;2.42;;;12.40;99.90;;;;;;5136975;27;20526;-75
2023/08/28 04:09:29;;;;;;;4.80;2.90;;;12.40;99.90;;;;;;5118802;27;20096;-76
2023/08/28 04:11:56;;;;;;;3.13;2.28;;;12.40;99.90;;;;;;5136861;27;20367;-73
2023/08/28 04:14:22;;;;;;;4.43;3.33;;;12.40;99.90;;;;;;5136485;27;20047;-76
2023/08/28 04:16:49;;;;;;;3.97;2.70;;;12.30;99.90;;;;;;5136576;27;20043;-77
2023/08/28 04:19:15;;;;;;;5.13;3.13;;;12.30;99.90;;;;;;5114423;28;20505;-75
2023/08/28 04:21:41;;;;;;;3.17;2.38;;;12.30;99.90;;;;;;5115793;28;20087;-75
2023/08/28 04:24:07;;;;;;;2.22;2.00;;;12.30;99.90;;;;;;5115652;28;20043;-73
2023/08/28 04:26:33;;;;;;;3.67;2.95;;;12.30;99.90;;;;;;5116255;28;20061;-76
2023/08/28 04:28:58;;;;;;;3.63;2.40;;;12.30;99.90;;;;;;5115706;28;20480;-73
2023/08/28 04:31:24;;;;;;;2.80;2.47;;;12.30;99.90;;;;;;5115685;28;20486;-78
2023/08/28 04:33:50;;;;;;;2.92;2.63;;;12.30;99.90;;;;;;5115499;28;20397;-74
2023/08/28 04:36:16;;;;;;;8.20;3.50;;;12.20;99.90;;;;;;5116111;28;20058;-73
2023/08/28 04:38:41;;;;;;;4.32;2.65;;;12.20;99.90;;;;;;5114207;28;20064;-76
2023/08/28 04:41:07;;;;;;;3.58;3.05;;;12.20;99.90;;;;;;5115594;28;20118;-75
2023/08/28 04:43:33;;;;;;;3.15;2.58;;;12.20;99.90;;;;;;5114030;28;20127;-76
2023/08/28 04:45:58;;;;;;;3.00;2.45;;;12.30;99.90;;;;;;5114012;28;19955;-73
2023/08/28 04:48:24;;;;;;;3.35;2.72;;;12.30;99.90;;;;;;5115316;28;20046;-76
2023/08/28 04:50:50;;;;;;;2.78;2.58;;;12.30;99.90;;;;;;5113859;28;20047;-75
2023/08/28 04:53:15;;;;;;;3.85;2.45;;;12.30;99.90;;;;;;5114959;28;20043;-73
2023/08/28 04:55:41;;;;;;;2.85;2.58;;;12.30;99.90;;;;;;5114925;28;20043;-74
2023/08/28 04:58:07;;;;;;;3.72;2.47;;;12.30;99.90;;;;;;5114771;28;20051;-76
2023/08/28 05:00:33;;;;;;;2.92;2.45;;;12.30;99.90;;;;;;5113817;28;20045;-76
2023/08/28 05:02:58;;;;;;;2.72;2.53;;;12.40;99.90;;;;;;5114849;28;20477;-73
2023/08/28 05:05:24;;;;;;;7.63;2.88;;;12.40;99.90;;;;;;5114467;28;20081;-75
2023/08/28 05:07:50;;;;;;;2.47;2.28;;;12.40;99.90;;;;;;5115325;28;20047;-74
2023/08/28 05:10:15;;;;;;;2.58;2.38;;;12.40;99.90;;;;;;5114804;28;20524;-73
2023/08/28 05:12:41;;;;;;;2.83;2.03;;;12.40;99.90;;;;;;5114819;28;20098;-75
2023/08/28 05:15:07;;;;;;;3.30;2.80;;;12.40;99.90;;;;;;5115123;28;20082;-76
2023/08/28 05:17:33;;;;;;;3.15;2.17;;;12.40;99.90;;;;;;5114780;28;20112;-76
2023/08/28 05:19:59;;;;;;;3.17;2.88;;;12.40;99.90;;;;;;5128720;27;20083;-72
2023/08/28 05:22:24;;;;;;;3.17;2.88;;;12.40;99.90;;;;;;5134629;27;20055;-75
2023/08/28 05:24:50;;;;;;;5.05;3.08;;;12.50;99.90;;;;;;5134642;27;20042;-74
2023/08/28 05:27:16;;;;;;;3.22;2.60;;;12.50;99.90;;;;;;5099922;27;20043;-79
2023/08/28 05:29:43;;;;;;;6.00;2.95;;;12.50;99.90;;;;;;5134828;27;20047;-78
2023/08/28 05:32:09;;;;;;;2.58;2.38;;;12.60;99.90;;;;;;5134831;27;20127;-76
2023/08/28 05:34:34;;;;;;;3.42;2.63;;;12.50;99.90;;;;;;5134303;27;20079;-78
2023/08/28 05:37:00;;;;;;;5.18;2.50;;;12.60;99.90;;;;;;5134854;27;20039;-78
2023/08/28 05:39:26;;;;;;;5.13;2.90;;;12.60;99.90;;;;;;5134538;27;20494;-78
2023/08/28 05:41:52;;;;;;;6.25;3.40;;;12.70;99.90;;;;;;5118842;27;20043;-77
2023/08/28 05:44:17;;;;;;;4.80;2.95;;;12.70;99.90;;;;;;5137161;27;20035;-75
2023/08/28 05:46:43;;;;;;;7.00;2.85;;;12.70;99.90;;;;;;5137684;27;20043;-73
2023/08/28 05:49:09;;;;;;;3.67;3.15;;;12.80;99.90;;;;;;5118145;27;20375;-75
2023/08/28 05:51:34;;;;;;;8.07;3.55;;;12.80;99.90;;;;;;5134869;27;20069;-75
2023/08/28 05:54:00;;;;;;;3.47;2.78;;;12.90;99.90;;;;;;5134911;27;20472;-76
2023/08/28 05:56:26;;;;;;;5.28;3.33;;;12.90;99.90;;;;;;5134311;27;20333;-75
2023/08/28 05:58:51;;;;;;;4.45;3.10;;;13.00;99.90;;;;;;5134128;27;20070;-75
2023/08/28 06:01:17;;;;;;;5.60;3.38;;;13.00;99.90;;;;;;5116221;27;20071;-75
2023/08/28 06:03:42;;;;;;;3.30;3.00;;;13.10;99.90;;;;;;5134151;27;20494;-76
2023/08/28 06:06:09;;;;;;;4.28;3.25;;;13.10;99.90;;;;;;5134408;27;20039;-74
2023/08/28 06:08:35;;;;;;;4.93;3.13;;;13.20;99.90;;;;;;5115986;27;20086;-75
2023/08/28 06:11:01;;;;;;;4.10;2.90;;;13.30;99.90;;;;;;5134045;27;20054;-74
2023/08/28 06:13:26;;;;;;;3.33;2.88;;;13.30;99.90;;;;;;5133952;27;20047;-76
2023/08/28 06:15:52;;;;;;;3.75;3.08;;;13.40;99.90;;;;;;5134045;27;20031;-75
2023/08/28 06:18:18;;;;;;;3.53;3.22;;;13.50;99.90;;;;;;5115847;27;20084;-77
2023/08/28 06:20:44;;;;;;;4.10;2.47;;;13.60;99.90;;;;;;5134453;27;20089;-75
2023/08/28 06:23:10;;;;;;;2.60;2.40;;;13.70;99.90;;;;;;5133874;27;20043;-75
2023/08/28 06:25:36;;;;;;;3.80;3.13;;;13.80;99.90;;;;;;5133854;27;20379;-77
2023/08/28 06:28:02;;;;;;;5.80;3.17;;;13.90;99.90;;;;;;5133795;27;20049;-76
2023/08/28 06:30:28;;;;;;;4.15;3.10;;;14.00;99.90;;;;;;5116064;27;20047;-77
2023/08/28 06:32:54;;;;;;;3.30;2.90;;;14.00;99.90;;;;;;5133618;27;20043;-76
2023/08/28 06:35:19;;;;;;;4.15;3.55;;;14.10;99.90;;;;;;5133822;27;20119;-75
2023/08/28 06:37:45;;;;;;;3.28;2.80;;;14.20;99.90;;;;;;5133397;27;20042;-74
2023/08/28 06:40:11;;;;;;;4.90;3.53;;;14.30;99.90;;;;;;5115402;27;20049;-76
2023/08/28 06:42:36;;;;;;;3.50;2.55;;;14.40;99.90;;;;;;5133877;27;20167;-75
2023/08/28 06:45:03;;;;;;;3.70;3.20;;;14.40;99.90;;;;;;5115810;27;20047;-76
2023/08/28 06:47:29;;;;;;;6.97;2.95;;;14.50;99.90;;;;;;5133480;27;20540;-73
2023/08/28 06:49:56;;;;;;;4.50;3.33;;;14.60;99.90;;;;;;5133615;27;20046;-75
2023/08/28 06:52:21;;;;;;;3.75;2.67;;;14.80;99.90;;;;;;5133470;27;20083;-74
2023/08/28 06:54:47;;;;;;;5.30;3.13;;;14.80;99.90;;;;;;5133793;27;20114;-76
2023/08/28 06:57:13;;;;;;;3.53;2.53;;;14.90;99.90;;;;;;5133406;27;20108;-76
2023/08/28 06:59:38;;;;;;;4.22;2.78;;;15.00;99.90;;;;;;5133312;28;20050;-75
2023/08/28 07:02:04;;;;;;;4.22;3.22;;;15.10;99.90;;;;;;5132930;27;20118;-73
2023/08/28 07:04:30;;;;;;;4.85;2.25;;;15.20;99.90;;;;;;5133581;28;20425;-73
2023/08/28 07:06:56;;;;;;;2.70;2.10;;;15.40;99.90;;;;;;5114806;28;20045;-73
2023/08/28 07:09:21;;;;;;;5.13;2.67;;;15.50;99.90;;;;;;5133836;28;20043;-75
2023/08/28 07:11:47;;;;;;;3.92;2.55;;;15.70;99.90;;;;;;5133437;28;20034;-74
2023/08/28 07:14:13;;;;;;;3.63;1.90;;;16.20;99.90;;;;;;5133633;28;20094;-78
2023/08/28 07:16:38;;;;;;;2.13;1.90;;;17.50;99.90;;;;;;5133575;28;20532;-76
2023/08/28 07:19:04;;;;;;;3.65;1.80;;;19.00;99.90;;;;;;5114831;28;20486;-74
2023/08/28 07:21:30;;;;;;;3.15;1.80;;;20.40;99.90;;;;;;5115263;28;20047;-76
2023/08/28 07:23:55;;;;;;;3.55;1.52;;;21.70;99.90;;;;;;5114972;28;20087;-75
2023/08/28 07:26:21;;;;;;;2.05;1.42;;;22.70;99.90;;;;;;5132834;28;20043;-75
2023/08/28 07:28:48;;;;;;;1.40;1.30;;;23.80;99.90;;;;;;5133237;28;20039;-74
2023/08/28 07:31:14;;;;;;;3.60;1.48;;;24.40;99.90;;;;;;5115147;28;20096;-74
2023/08/28 07:33:40;;;;;;;2.10;1.33;;;24.70;99.90;;;;;;5114902;28;20039;-74
2023/08/28 07:36:06;;;;;;;1.35;1.17;;;25.20;99.90;;;;;;5133768;28;20108;-73
2023/08/28 07:38:32;;;;;;;1.10;1.00;;;25.50;99.90;;;;;;5133208;28;20180;-73
2023/08/28 07:40:58;;;;;;;1.83;1.73;;;25.90;99.90;;;;;;5133390;28;20044;-76
2023/08/28 07:43:24;;;;;;;1.35;1.10;;;26.00;99.90;;;;;;5133606;28;20502;-76
2023/08/28 07:45:50;;;;;;;2.17;0.82;;;26.40;99.90;;;;;;5114503;28;20054;-76
2023/08/28 07:48:16;;;;;;;1.23;1.10;;;26.50;99.90;;;;;;5132972;28;20047;-73
2023/08/28 07:50:42;;;;;;;1.08;1.02;;;27.20;99.90;;;;;;5133157;28;20039;-75
2023/08/28 07:53:08;;;;;;;2.45;1.02;;;27.80;99.90;;;;;;5132889;28;20058;-73
2023/08/28 07:55:34;;;;;;;1.17;0.63;;;28.00;99.90;;;;;;5133192;28;20035;-73
2023/08/28 07:58:00;;;;;;;1.73;0.95;;;28.00;99.90;;;;;;5132880;28;20128;-77
2023/08/28 08:00:26;;;;;;;4.13;1.00;;;28.70;99.90;;;;;;5132571;28;20055;-73
2023/08/28 08:02:52;;;;;;;1.77;0.85;;;29.00;99.90;;;;;;5132690;28;20090;-76
2023/08/28 08:05:18;;;;;;;1.73;0.90;;;29.40;99.90;;;;;;5132525;28;20039;-74
2023/08/28 08:07:44;;;;;;;1.40;0.90;;;29.40;99.90;;;;;;5132787;28;20047;-73
2023/08/28 08:10:11;;;;;;;2.63;1.02;;;29.50;99.90;;;;;;5132687;28;20039;-75
2023/08/28 08:12:38;;;;;;;1.70;1.48;;;29.40;98.20;;;;;;5098070;27;20050;-75
2023/08/28 08:15:06;;;;;;;2.30;1.40;;;29.20;99.90;;;;;;5136299;27;20464;-75
2023/08/28 08:17:32;;;;;;;1.05;0.90;;;28.70;99.90;;;;;;5136543;27;20089;-73
2023/08/28 08:19:58;;;;;;;1.67;0.93;;;28.50;99.90;;;;;;5136070;27;20051;-77
2023/08/28 08:22:24;;;;;;;2.72;0.90;;;28.30;99.80;;;;;;5135828;27;20051;-75
2023/08/28 08:24:50;;;;;;;0.77;0.70;;;28.50;99.20;;;;;;5136450;27;20050;-74
2023/08/28 08:27:16;;;;;;;1.00;0.90;;;28.50;98.30;;;;;;5136177;27;20051;-74
2023/08/28 08:29:42;;;;;;;1.63;0.88;;;28.20;98.10;;;;;;5136058;27;20096;-76
2023/08/28 08:32:08;;;;;;;3.65;1.05;;;27.90;97.50;;;;;;5135943;27;20056;-75
2023/08/28 08:34:34;;;;;;;5.60;1.10;;;27.00;97.00;;;;;;5136583;27;20039;-75
2023/08/28 08:36:59;;;;;;;2.15;0.90;;;26.90;97.20;;;;;;5136302;27;20043;-75
2023/08/28 08:39:25;;;;;;;1.48;0.75;;;27.80;96.80;;;;;;5117698;27;20054;-75
2023/08/28 08:41:51;;;;;;;0.98;0.88;;;28.30;95.70;;;;;;5136013;27;20122;-77
2023/08/28 08:44:17;;;;;;;1.30;0.80;;;27.80;95.70;;;;;;5135659;27;20081;-75
2023/08/28 08:46:46;;;;;;;0.75;0.75;;;27.20;96.40;;;;;;5117467;27;20054;-77
2023/08/28 08:49:18;;;;;;;1.73;1.00;;;27.00;96.40;;;;;;5117793;27;20043;-76
2023/08/28 08:51:45;;;;;;;2.65;1.20;;;27.70;95.00;;;;;;5135740;27;20092;-74
2023/08/28 08:54:26;;;;;;;1.42;0.98;;;28.30;95.20;;;;;;5135517;27;20075;-76
2023/08/28 08:57:00;;;;;;;1.48;0.90;;;28.00;92.60;;;;;;5136312;27;20066;-76
2023/08/28 08:59:26;;;;;;;2.88;0.98;;;26.60;94.40;;;;;;5135709;27;20051;-76
2023/08/28 09:01:53;;;;;;;2.25;0.75;;;26.00;95.70;;;;;;5135579;27;20043;-77
2023/08/28 09:04:19;;;;;;;1.35;1.00;;;25.00;96.10;;;;;;5135455;27;20062;-75
2023/08/28 09:06:48;;;;;;;1.95;1.02;;;24.60;96.20;;;;;;5135978;27;20055;-74
2023/08/28 09:09:15;;;;;;;1.33;1.23;;;25.10;96.00;;;;;;5118033;27;20051;-73
2023/08/28 09:11:45;;;;;;;1.48;0.70;;;26.10;95.70;;;;;;5136046;27;20051;-74
2023/08/28 09:14:11;;;;;;;0.80;0.80;;;27.40;95.10;;;;;;5117389;27;20047;-74
2023/08/28 09:16:37;;;;;;;1.08;0.95;;;27.50;94.20;;;;;;5135342;27;20047;-74
2023/08/28 09:19:02;;;;;;;2.05;0.82;;;27.10;94.50;;;;;;5135120;27;20058;-73
2023/08/28 09:21:35;;;;;;;2.05;0.70;;;26.60;94.50;;;;;;5135620;27;20123;-74
2023/08/28 09:24:00;;;;;;;;;;;26.40;93.00;;;;;;5135977;27;20049;-75
2023/08/28 09:26:26;;;;;;;2.30;0.77;;;25.70;92.20;;;;;;5136411;27;19938;-77
2023/08/28 09:28:59;;;;;;;2.00;0.82;;;26.00;95.20;;;;;;5117481;27;20039;-75
2023/08/28 09:31:42;;;;;;;1.20;0.60;;;26.80;93.70;;;;;;5135552;27;20467;-74
2023/08/28 09:34:08;;;;;;;;;;;27.50;91.60;;;;;;5135639;27;20110;-75
2023/08/28 09:36:35;;;;;;;2.22;0.63;;;27.70;91.20;;;;;;5100125;27;20358;-76
2023/08/28 09:39:05;;;;;;;0.98;0.82;;;28.10;93.40;;;;;;5135597;27;20080;-73
2023/08/28 09:41:47;;;;;;;0.77;0.77;;;28.30;92.00;;;;;;5135267;27;20488;-76
2023/08/28 09:44:21;;;;;;;0.80;0.80;;;28.60;89.10;;;;;;5134976;27;20092;-74
2023/08/28 09:46:49;;;;;;;1.52;0.70;;;29.10;88.90;;;;;;5100120;27;20043;-75
2023/08/28 09:49:14;;;;;;;0.30;0.30;;;29.10;91.40;;;;;;5134773;27;20085;-75
2023/08/28 09:51:45;;;;;;;0.57;0.57;;;29.20;91.30;;;;;;5117145;27;20043;-76
2023/08/28 09:54:13;;;;;;;1.38;0.50;;;29.70;90.60;;;;;;5134565;27;20039;-76
2023/08/28 09:56:39;;;;;;;0.40;0.40;;;29.30;90.70;;;;;;5116324;27;20051;-76
2023/08/28 09:59:07;;;;;;;3.38;0.93;;;29.50;90.90;;;;;;5134517;27;20043;-76
2023/08/28 10:01:35;;;;;;;0.95;0.77;;;29.60;90.80;;;;;;5134624;27;20111;-76
2023/08/28 10:04:05;;;;;;;1.17;0.82;;;28.80;90.50;;;;;;5116479;27;20043;-74
2023/08/28 10:06:35;;;;;;;2.15;0.93;;;27.90;90.60;;;;;;5137058;27;20039;-75
2023/08/28 10:09:04;;;;;;;1.25;0.98;;;27.80;90.90;;;;;;5136983;27;20457;-75
2023/08/28 10:11:35;;;;;;;1.95;0.82;;;28.50;91.00;;;;;;5135349;27;20039;-74
2023/08/28 10:14:04;;;;;;;0.82;0.82;;;27.70;90.10;;;;;;5134687;27;20118;-75
2023/08/28 10:16:34;;;;;;;1.38;1.00;;;26.60;91.00;;;;;;5133712;27;20429;-76
2023/08/28 10:19:09;;;;;;;3.10;1.10;;;26.30;91.60;;;;;;5133530;27;20457;-74
2023/08/28 10:21:35;;;;;;;3.50;0.80;;;25.60;91.60;;;;;;5133862;27;20166;-75
2023/08/28 10:24:02;;;;;;;0.75;0.70;;;26.00;92.20;;;;;;5134176;27;20047;-75
2023/08/28 10:26:29;;;;;;;1.40;0.98;;;25.50;92.00;;;;;;5133935;27;20146;-76
2023/08/28 10:28:55;;;;;;;2.25;1.27;;;24.10;93.10;;;;;;5133827;27;20070;-75
2023/08/28 10:31:22;;;;;;;3.72;1.00;;;23.20;93.80;;;;;;5133834;27;20054;-76
2023/08/28 10:33:49;;;;;;;1.98;0.95;;;22.50;95.40;;;;;;5115452;27;20047;-77
2023/08/28 10:36:17;;;;;;;2.35;0.70;;;21.90;97.20;;;;;;5132853;27;20054;-75
2023/08/28 10:38:44;;;;;;;2.92;0.80;;;21.30;98.70;;;;;;5133922;27;20043;-75
2023/08/28 10:41:11;;;;;;;0.93;0.93;;;20.80;99.90;;;;;;5133638;27;20145;-76
2023/08/28 10:43:38;;;;;;;1.90;1.02;;;20.70;99.90;;;;;;5133896;27;20047;-74
2023/08/28 10:46:04;;;;;;;1.45;0.80;;;20.10;99.90;;;;;;5133635;27;20047;-76
2023/08/28 10:48:30;;;;;;;1.50;1.05;;;19.90;99.90;;;;;;5133574;27;20392;-75
2023/08/28 10:50:57;;;;;;;1.67;1.25;;;19.70;99.90;;;;;;5133969;27;20080;-75
2023/08/28 10:53:23;;;;;;;2.17;0.90;;;19.60;99.90;;;;;;5133390;27;20043;-74
2023/08/28 10:55:55;;;;;;;2.47;1.10;;;19.50;99.90;;;;;;5134020;27;20035;-74
2023/08/28 10:58:21;;;;;;;1.52;1.10;;;19.40;99.90;;;;;;5133463;27;20483;-75
2023/08/28 11:00:47;;;;;;;2.72;1.23;;;19.40;99.90;;;;;;5133991;28;20081;-74
2023/08/28 11:03:17;;;;;;;0.82;0.75;;;19.50;99.90;;;;;;5132902;28;20423;-75
2023/08/28 11:05:44;;;;;;;2.00;0.80;;;19.60;99.90;;;;;;5133365;28;20046;-76
2023/08/28 11:08:13;;;;;;;1.58;1.20;;;19.60;99.90;;;;;;5115162;28;20364;-75
2023/08/28 11:10:44;;;;;;;0.90;0.90;;;19.60;99.90;;;;;;5133376;28;20476;-75
2023/08/28 11:13:18;;;;;;;1.08;0.98;;;19.70;99.90;;;;;;5115283;28;20502;-74
2023/08/28 11:15:44;;;;;;;1.15;1.05;;;19.80;99.90;;;;;;5133598;28;20050;-73
2023/08/28 11:18:14;;;;;;;5.45;1.20;;;19.80;99.90;;;;;;5133317;28;20122;-74
2023/08/28 11:20:40;;;;;;;1.25;1.05;;;19.90;99.90;;;;;;5133004;28;20051;-73
2023/08/28 11:23:06;;;;;;;1.95;1.25;;;19.80;99.90;;;;;;5115220;28;20077;-73
2023/08/28 11:25:37;;;;;;;2.03;1.10;;;19.90;99.90;;;;;;5114766;28;20116;-69
2023/08/28 11:28:03;;;;;;;1.63;1.13;;;20.00;99.90;;;;;;5133097;28;20069;-79
2023/08/28 11:30:29;;;;;;;1.30;1.20;;;20.00;99.90;;;;;;5133116;28;20070;-72
2023/08/28 11:32:55;;;;;;;1.73;1.30;;;20.10;99.90;;;;;;5132934;28;20501;-73
2023/08/28 11:35:22;;;;;;;1.10;1.00;;;20.30;99.90;;;;;;5132856;28;20114;-73
2023/08/28 11:37:53;;;;;;;2.28;1.40;;;20.40;99.90;;;;;;5114722;28;20118;-75
2023/08/28 11:40:26;;;;;;;1.50;1.27;;;20.60;99.90;;;;;;5133100;28;20054;-73
2023/08/28 11:43:06;;;;;;;1.48;1.08;;;20.80;99.90;;;;;;5132786;28;20130;-74
2023/08/28 11:45:32;;;;;;;1.80;1.00;;;21.00;99.90;;;;;;5098339;28;20047;-75
2023/08/28 11:48:03;;;;;;;3.00;1.42;;;21.20;99.90;;;;;;5134464;27;20055;-75
2023/08/28 11:50:29;;;;;;;0.60;0.60;;;21.50;99.90;;;;;;5136591;27;20091;-73
2023/08/28 11:52:55;;;;;;;1.17;1.08;;;21.70;99.90;;;;;;5136630;27;20515;-73
2023/08/28 11:55:21;;;;;;;2.92;1.10;;;22.10;99.90;;;;;;5118584;27;20039;-74
2023/08/28 11:57:49;;;;;;;1.67;1.13;;;22.20;99.90;;;;;;5137158;27;20389;-74
2023/08/28 12:00:16;;;;;;;1.42;0.90;;;22.20;99.90;;;;;;5136544;27;20131;-74
2023/08/28 12:02:50;;;;;;;1.52;1.25;;;21.90;99.80;;;;;;5136424;27;20054;-73
2023/08/28 12:05:17;;;;;;;1.63;0.77;;;21.70;99.60;;;;;;5118717;27;20051;-75
2023/08/28 12:07:44;;;;;;;2.13;1.27;;;21.70;99.90;;;;;;5136345;27;20047;-75
2023/08/28 12:10:15;;;;;;;1.45;1.05;;;21.80;99.90;;;;;;5136807;27;20043;-75
2023/08/28 12:12:41;;;;;;;1.35;1.13;;;22.00;99.90;;;;;;5117963;27;20058;-73
2023/08/28 12:15:08;;;;;;;1.15;0.80;;;21.90;99.90;;;;;;5136351;27;20035;-72
2023/08/28 12:17:36;;;;;;;2.90;0.95;;;21.60;98.90;;;;;;5118432;27;20087;-74
2023/08/28 12:20:05;;;;;;;1.65;0.68;;;21.50;99.90;;;;;;5136172;27;20047;-73
2023/08/28 12:22:32;;;;;;;1.55;0.82;;;21.30;98.70;;;;;;5136011;27;20538;-72
2023/08/28 12:24:58;;;;;;;1.05;0.95;;;21.10;98.30;;;;;;5136437;27;20085;-71
2023/08/28 12:27:26;;;;;;;0.82;0.57;;;21.00;98.80;;;;;;5135739;27;20047;-71
2023/08/28 12:29:54;;;;;;;1.20;0.80;;;21.10;99.00;;;;;;5135919;27;20035;-71
2023/08/28 12:32:20;;;;;;;3.33;0.85;;;21.20;98.90;;;;;;5136044;27;20078;-70
2023/08/28 12:34:47;;;;;;;0.60;0.60;;;21.20;98.40;;;;;;5136166;27;20485;-70
2023/08/28 12:37:14;;;;;;;1.98;0.80;;;21.30;98.00;;;;;;5135982;27;20049;-71
2023/08/28 12:39:50;;;;;;;1.75;0.93;;;21.40;98.00;;;;;;5135684;27;20448;-70
2023/08/28 12:42:20;;;;;;;0.95;0.63;;;21.60;98.40;;;;;;5136210;27;20053;-71
2023/08/28 12:44:46;;;;;;;2.95;0.90;;;21.80;98.00;;;;;;5117555;27;20047;-71
2023/08/28 12:47:14;;;;;;;0.90;0.80;;;21.80;98.00;;;;;;5135853;27;20047;-71